createdAt,value
2022-08-19T00:02:50.027Z,9.32
2022-08-19T00:06:53.889Z,8.90
2022-08-19T00:10:58.202Z,9.45
2022-08-19T00:15:01.054Z,8.02
2022-08-19T00:19:05.106Z,8.52
2022-08-19T00:23:07.947Z,10.88
2022-08-19T00:27:26.126Z,10.02
2022-08-19T00:31:29.577Z,7.93
2022-08-19T00:35:33.006Z,11.10
2022-08-19T00:39:35.831Z,8.40
2022-08-19T00:43:41.327Z,11.90
2022-08-19T00:47:44.267Z,8.30
2022-08-19T00:51:51.528Z,8.65
2022-08-19T00:55:58.210Z,9.90
2022-08-19T01:00:03.635Z,10.77
2022-08-19T01:04:06.578Z,11.02
2022-08-19T01:08:10.178Z,11.18
2022-08-19T01:12:13.192Z,11.77
2022-08-19T01:16:20.625Z,11.02
2022-08-19T01:20:25.678Z,11.52
2022-08-19T01:24:31.707Z,10.55
2022-08-19T01:28:40.225Z,12.55
2022-08-19T01:32:45.322Z,12.38
2022-08-19T01:36:50.057Z,12.98
2022-08-19T01:40:54.921Z,11.52
2022-08-19T01:44:57.694Z,10.48
2022-08-19T01:49:01.158Z,13.35
2022-08-19T01:53:07.957Z,11.88
2022-08-19T01:57:15.998Z,15.27
2022-08-19T02:01:19.728Z,13.38
2022-08-19T02:05:22.776Z,11.95
2022-08-19T02:09:25.567Z,11.93
2022-08-19T02:13:30.096Z,14.13
2022-08-19T02:17:32.933Z,16.77
2022-08-19T02:21:36.260Z,14.55
2022-08-19T02:25:39.577Z,15.50
2022-08-19T02:29:43.682Z,14.82
2022-08-19T02:33:47.715Z,15.68
2022-08-19T02:38:08.570Z,14.25
2022-08-19T02:42:11.522Z,19.50
2022-08-19T02:46:21.749Z,17.77
2022-08-19T02:50:24.588Z,17.77
2022-08-19T02:54:28.232Z,17.40
2022-08-19T02:58:31.295Z,16.95
2022-08-19T03:02:35.446Z,17.88
2022-08-19T03:06:39.196Z,17.13
2022-08-19T03:10:45.420Z,17.52
2022-08-19T03:14:48.480Z,19.30
2022-08-19T03:18:53.878Z,18.63
2022-08-19T03:22:56.869Z,19.75
2022-08-19T03:27:00.404Z,19.95
2022-08-19T03:31:41.818Z,20.65
2022-08-19T03:35:31.761Z,23.33
2022-08-19T03:39:34.811Z,18.65
2022-08-19T03:43:39.620Z,19.20
2022-08-19T03:47:42.478Z,22.98
2022-08-19T03:51:48.128Z,20.65
2022-08-19T03:55:51.066Z,20.63
2022-08-19T03:59:53.879Z,21.77
2022-08-19T04:03:58.657Z,22.08
2022-08-19T04:08:04.405Z,21.30
2022-08-19T04:12:07.803Z,22.95
2022-08-19T04:16:11.096Z,22.35
2022-08-19T04:20:14.252Z,20.75
2022-08-19T04:24:18.554Z,28.25
2022-08-19T04:28:21.466Z,22.63
2022-08-19T04:32:24.271Z,25.90
2022-08-19T04:36:29.095Z,27.33
2022-08-19T04:40:51.243Z,25.75
2022-08-19T04:44:56.598Z,25.27
2022-08-19T04:49:01.435Z,23.63
2022-08-19T04:53:13.809Z,26.45
2022-08-19T04:57:18.420Z,25.48
2022-08-19T05:01:23.928Z,24.98
2022-08-19T05:05:26.818Z,30.60
2022-08-19T05:09:42.124Z,28.98
2022-08-19T05:13:54.464Z,27.13
2022-08-19T05:18:14.226Z,25.85
2022-08-19T05:22:35.520Z,24.92
2022-08-19T05:26:38.676Z,29.40
2022-08-19T05:30:47.490Z,28.60
2022-08-19T05:34:50.701Z,29.75
2022-08-19T05:38:54.110Z,22.60
2022-08-19T05:42:56.990Z,24.45
2022-08-19T05:47:01.690Z,21.10
2022-08-19T05:51:07.091Z,24.38
2022-08-19T05:55:10.338Z,25.00
2022-08-19T05:59:13.374Z,25.40
2022-08-19T06:03:18.269Z,23.45
2022-08-19T06:07:21.418Z,25.55
2022-08-19T06:11:26.770Z,23.67
2022-08-19T06:15:29.654Z,23.90
2022-08-19T06:19:33.781Z,26.33
2022-08-19T06:23:36.586Z,22.85
2022-08-19T06:27:58.565Z,24.20
2022-08-19T06:32:05.235Z,25.27
2022-08-19T06:36:17.335Z,21.70
2022-08-19T06:40:20.990Z,24.73
2022-08-19T06:44:30.536Z,23.60
2022-08-19T06:48:43.314Z,24.40
2022-08-19T06:52:50.005Z,21.08
2022-08-19T06:56:54.009Z,22.17
2022-08-19T07:00:58.546Z,20.95
2022-08-19T07:05:03.490Z,22.75
2022-08-19T07:09:13.643Z,22.92
2022-08-19T07:13:16.629Z,23.15
2022-08-19T07:17:21.051Z,23.30
2022-08-19T07:21:27.553Z,26.08
2022-08-19T07:25:33.832Z,22.88
2022-08-19T07:29:37.758Z,21.10
2022-08-19T07:33:43.518Z,21.33
2022-08-19T07:37:46.354Z,22.52
2022-08-19T07:41:51.433Z,26.20
2022-08-19T07:45:57.089Z,20.77
2022-08-19T07:50:00.071Z,21.48
2022-08-19T07:54:02.915Z,20.63
2022-08-19T07:58:07.048Z,19.08
2022-08-19T08:02:10.754Z,17.95
2022-08-19T08:06:32.507Z,19.65
2022-08-19T08:10:35.418Z,20.98
2022-08-19T08:14:44.150Z,18.10
2022-08-19T08:18:50.695Z,13.23
2022-08-19T08:23:13.496Z,15.30
2022-08-19T08:27:16.923Z,16.52
2022-08-19T08:31:22.327Z,11.90
2022-08-19T08:35:26.303Z,14.68
2022-08-19T08:39:29.713Z,11.25
2022-08-19T08:43:35.725Z,9.20
2022-08-19T08:47:44.014Z,9.25
2022-08-19T08:51:59.705Z,9.00
2022-08-19T08:56:06.583Z,9.02
2022-08-19T09:00:17.432Z,10.40
2022-08-19T09:04:23.422Z,9.02
2022-08-19T09:08:39.170Z,10.88
2022-08-19T09:12:54.160Z,10.63
2022-08-19T09:16:58.069Z,9.57
2022-08-19T09:21:02.155Z,7.60
2022-08-19T09:25:06.737Z,9.73
2022-08-19T09:29:09.967Z,10.02
2022-08-19T09:33:12.959Z,7.20
2022-08-19T09:37:17.103Z,6.63
2022-08-19T09:41:22.288Z,6.18
2022-08-19T09:45:26.574Z,8.07
2022-08-19T09:49:29.317Z,6.38
2022-08-19T09:53:34.579Z,6.55
2022-08-19T09:57:40.948Z,9.98
2022-08-19T10:01:44.195Z,6.78
2022-08-19T10:05:54.639Z,6.75
2022-08-19T10:09:59.590Z,5.72
2022-08-19T10:14:02.560Z,6.72
2022-08-19T10:18:06.097Z,6.18
2022-08-19T10:22:10.074Z,5.60
2022-08-19T10:26:19.344Z,6.00
2022-08-19T10:30:22.718Z,10.35
2022-08-19T10:34:30.737Z,5.35
2022-08-19T10:38:34.864Z,6.25
2022-08-19T10:42:39.607Z,5.00
2022-08-19T10:46:48.966Z,8.65
2022-08-19T10:51:10.927Z,6.38
2022-08-19T10:55:44.099Z,8.25
2022-08-19T10:59:48.970Z,14.18
2022-08-19T11:03:51.764Z,5.05
2022-08-19T11:07:54.747Z,7.47
2022-08-19T11:11:57.819Z,5.78
2022-08-19T11:16:10.685Z,4.53
2022-08-19T11:20:15.249Z,4.93
2022-08-19T11:24:21.240Z,5.38
2022-08-19T11:28:24.003Z,5.50
2022-08-19T11:32:28.408Z,5.15
2022-08-19T11:36:32.251Z,5.00
2022-08-19T11:40:35.098Z,4.18
2022-08-19T11:44:37.876Z,5.10
2022-08-19T11:48:42.535Z,4.47
2022-08-19T11:52:46.093Z,5.93
2022-08-19T11:56:49.969Z,4.13
2022-08-19T12:00:53.877Z,3.65
2022-08-19T12:04:58.513Z,3.55
2022-08-19T12:09:04.963Z,4.30
2022-08-19T12:13:08.533Z,3.28
2022-08-19T12:17:12.362Z,4.45
2022-08-19T12:21:22.137Z,4.05
2022-08-19T12:25:24.914Z,4.35
2022-08-19T12:29:30.304Z,2.42
2022-08-19T12:33:33.420Z,2.70
2022-08-19T12:37:37.899Z,2.45
2022-08-19T12:41:45.092Z,3.40
2022-08-19T12:45:57.129Z,3.15
2022-08-19T12:49:59.889Z,3.22
2022-08-19T12:54:04.668Z,3.03
2022-08-19T12:58:07.445Z,4.15
2022-08-19T13:02:10.506Z,3.88
2022-08-19T13:06:13.997Z,3.67
2022-08-19T13:10:23.914Z,4.10
2022-08-19T13:14:26.962Z,4.80
2022-08-19T13:18:29.949Z,3.40
2022-08-19T13:22:33.238Z,3.28
2022-08-19T13:26:37.347Z,3.30
2022-08-19T13:30:57.534Z,3.70
2022-08-19T13:35:00.324Z,3.85
2022-08-19T13:39:03.175Z,3.45
2022-08-19T13:43:17.518Z,4.00
2022-08-19T13:47:26.389Z,3.90
2022-08-19T13:51:29.220Z,15.20
2022-08-19T13:55:32.380Z,4.25
2022-08-19T13:59:36.750Z,3.60
2022-08-19T14:03:40.044Z,3.72
2022-08-19T14:07:43.325Z,6.78
2022-08-19T14:11:47.467Z,7.70
2022-08-19T14:15:52.057Z,5.85
2022-08-19T14:19:58.455Z,4.90
2022-08-19T14:24:06.765Z,19.90
2022-08-19T14:28:10.913Z,3.40
2022-08-19T14:32:16.153Z,3.65
2022-08-19T14:36:20.613Z,3.55
2022-08-19T14:40:27.530Z,3.75
2022-08-19T14:44:34.723Z,3.50
2022-08-19T14:48:41.377Z,3.50
2022-08-19T14:52:44.354Z,3.15
2022-08-19T14:56:47.277Z,4.20
2022-08-19T15:00:50.125Z,3.33
2022-08-19T15:04:58.101Z,3.30
2022-08-19T15:09:04.499Z,3.38
2022-08-19T15:13:08.146Z,3.67
2022-08-19T15:17:10.949Z,5.05
2022-08-19T15:21:17.414Z,4.57
2022-08-19T15:25:30.199Z,4.80
2022-08-19T15:29:33.192Z,5.97
2022-08-19T15:33:37.879Z,3.70
2022-08-19T15:37:42.753Z,5.50
2022-08-19T15:41:45.926Z,3.50
2022-08-19T15:45:49.681Z,3.25
2022-08-19T15:49:55.766Z,3.50
2022-08-19T15:54:04.087Z,3.45
2022-08-19T15:58:28.856Z,4.50
2022-08-19T16:02:53.492Z,3.83
2022-08-19T16:06:58.458Z,3.53
2022-08-19T16:11:02.922Z,3.60
2022-08-19T16:15:06.699Z,5.85
2022-08-19T16:19:12.232Z,4.78
2022-08-19T16:23:15.438Z,5.13
2022-08-19T16:27:19.540Z,3.63
2022-08-19T16:31:22.383Z,3.78
2022-08-19T16:35:25.152Z,3.67
2022-08-19T16:39:27.919Z,5.07
2022-08-19T16:43:32.264Z,3.90
2022-08-19T16:47:35.324Z,3.90
2022-08-19T16:51:38.911Z,3.78
2022-08-19T16:55:42.139Z,3.85
2022-08-19T16:59:48.960Z,3.53
2022-08-19T17:03:53.031Z,4.00
2022-08-19T17:07:55.916Z,4.10
2022-08-19T17:11:58.763Z,3.90
2022-08-19T17:16:03.269Z,3.97
2022-08-19T17:20:07.845Z,3.85
2022-08-19T17:24:10.631Z,4.22
2022-08-19T17:28:15.722Z,3.92
2022-08-19T17:32:25.340Z,4.25
2022-08-19T17:36:31.504Z,5.65
2022-08-19T17:40:34.881Z,7.18
2022-08-19T17:44:40.804Z,5.18
2022-08-19T17:48:48.466Z,6.45
2022-08-19T17:52:54.190Z,4.28
2022-08-19T17:56:57.064Z,6.07
2022-08-19T18:01:02.538Z,4.47
2022-08-19T18:05:07.484Z,4.18
2022-08-19T18:09:10.415Z,4.78
2022-08-19T18:13:17.687Z,5.15
2022-08-19T18:17:23.155Z,5.93
2022-08-19T18:21:31.643Z,5.45
2022-08-19T18:25:34.537Z,6.85
2022-08-19T18:29:38.430Z,6.05
2022-08-19T18:33:44.577Z,7.22
2022-08-19T18:37:49.610Z,6.03
2022-08-19T18:42:10.013Z,6.00
2022-08-19T18:46:34.927Z,6.25
2022-08-19T18:50:42.495Z,6.45
2022-08-19T18:54:47.106Z,7.15
2022-08-19T18:58:50.354Z,6.03
2022-08-19T19:02:54.511Z,7.05
2022-08-19T19:06:57.960Z,5.80
2022-08-19T19:11:05.155Z,6.43
2022-08-19T19:15:09.223Z,8.13
2022-08-19T19:19:13.438Z,7.13
2022-08-19T19:23:16.228Z,6.10
2022-08-19T19:27:21.250Z,6.63
2022-08-19T19:31:27.355Z,7.95
2022-08-19T19:35:31.165Z,7.88
2022-08-19T19:39:45.765Z,6.53
2022-08-19T19:44:04.499Z,6.03
2022-08-19T19:48:16.488Z,7.60
2022-08-19T19:52:19.518Z,7.93
2022-08-19T19:56:23.738Z,6.15
2022-08-19T20:00:27.977Z,9.25
2022-08-19T20:04:32.474Z,7.75
2022-08-19T20:08:53.118Z,6.70
2022-08-19T20:12:56.906Z,6.60
2022-08-19T20:17:01.116Z,6.40
2022-08-19T20:21:03.896Z,6.60
2022-08-19T20:25:07.875Z,7.05
2022-08-19T20:29:13.319Z,6.72
2022-08-19T20:33:35.094Z,7.40
2022-08-19T20:37:38.304Z,6.47
2022-08-19T20:41:41.468Z,7.35
2022-08-19T20:45:44.287Z,7.25
2022-08-19T20:49:48.399Z,7.20
2022-08-19T20:53:51.467Z,7.47
2022-08-19T20:57:54.632Z,6.40
2022-08-19T21:01:57.645Z,8.02
2022-08-19T21:06:02.153Z,7.40
2022-08-19T21:10:06.725Z,7.00
2022-08-19T21:14:09.751Z,6.43
2022-08-19T21:18:15.005Z,11.43
2022-08-19T21:22:19.855Z,7.25
2022-08-19T21:26:22.636Z,8.63
2022-08-19T21:30:25.475Z,10.40
2022-08-19T21:34:28.310Z,10.18
2022-08-19T21:38:32.847Z,9.60
2022-08-19T21:42:35.900Z,10.90
2022-08-19T21:46:38.766Z,9.38
2022-08-19T21:50:41.801Z,8.02
2022-08-19T21:54:45.905Z,8.13
2022-08-19T21:58:48.682Z,9.45
2022-08-19T22:02:52.384Z,10.70
2022-08-19T22:06:55.225Z,10.73
2022-08-19T22:11:00.073Z,10.60
2022-08-19T22:15:05.909Z,13.35
2022-08-19T22:19:09.166Z,14.23
2022-08-19T22:23:12.014Z,10.65
2022-08-19T22:27:16.144Z,11.65
2022-08-19T22:31:19.277Z,10.52
2022-08-19T22:35:25.210Z,9.77
2022-08-19T22:39:28.131Z,24.40
2022-08-19T22:43:33.988Z,11.45
2022-08-19T22:47:39.435Z,14.73
2022-08-19T22:51:59.887Z,12.98
2022-08-19T22:56:03.051Z,13.43
2022-08-19T23:00:11.177Z,13.07
2022-08-19T23:04:14.002Z,15.48
2022-08-19T23:08:16.779Z,16.15
2022-08-19T23:12:31.492Z,13.55
2022-08-19T23:16:35.702Z,14.25
2022-08-19T23:20:40.799Z,17.27
2022-08-19T23:24:43.562Z,15.40
2022-08-19T23:29:04.033Z,14.45
2022-08-19T23:33:18.596Z,15.95
2022-08-19T23:37:21.358Z,15.73
2022-08-19T23:41:27.094Z,20.45
2022-08-19T23:45:32.702Z,17.90
2022-08-19T23:49:37.720Z,19.77
2022-08-19T23:53:42.128Z,19.63
2022-08-19T23:57:45.026Z,19.00
